Bookmark and Share
Track history (hours):
 

Tokuyo Maru No.15

Last reported at 2014-Apr-24 08:33 UTC. Time now 2014-Apr-24 09:20 UTC.
Position N 34°58' E 140°07'.

Length 66 m; draft 4.5 m.

Type: Tanker. MMSI: 431402034.

NotesDate/timePositionNaut miles runAvg speedWind from/ knotsBaromVisibWave heightAir tempDewpointWater temp
2014-Apr-24 08:33N 34°58' E 140°07'19 9.3
2014-Apr-24 06:33N 35°00' E 139°44'1312.7
2014-Apr-24 05:33N 35°13' E 139°46'1212.0
2014-Apr-24 04:33N 35°25' E 139°44'1312.7
2014-Apr-24 03:33N 35°31' E 139°57'5 4.6
2014-Apr-24 02:33N 35°31' E 140°03'0 0.0
2014-Apr-24 01:33N 35°31' E 140°03'0 0.0
2014-Apr-24 00:33N 35°31' E 140°03'2 1.6
2014-Apr-23 23:33N 35°31' E 140°01'5 4.6
2014-Apr-23 22:31N 35°29' E 139°56'0 0.0
2014-Apr-23 21:31N 35°29' E 139°56'0 0.0
2014-Apr-23 20:25N 35°29' E 139°56'0 0.0
2014-Apr-23 19:31N 35°29' E 139°56'0 0.0
2014-Apr-23 18:31N 35°29' E 139°56'0 0.0
2014-Apr-23 17:31N 35°29' E 139°56'2 2.1
2014-Apr-23 16:33N 35°29' E 139°53'1211.7
2014-Apr-23 15:33N 35°19' E 139°44'1211.7
2014-Apr-23 14:33N 35°08' E 139°46'1211.7
2014-Apr-23 13:30N 34°56' E 139°46'2110.3
2014-Apr-23 11:27N 35°01' E 140°11'2311.7
2014-Apr-23 09:32N 35°17' E 140°30'38 3.4
2014-Apr-22 22:25N 35°54' E 140°41'4 3.8
2014-Apr-22 21:27N 35°57' E 140°42'0 0.0
2014-Apr-22 20:09N 35°57' E 140°42'0 0.0
2014-Apr-22 19:33N 35°57' E 140°42'0 0.0
2014-Apr-22 18:27N 35°57' E 140°42'0 0.0
2014-Apr-22 17:33N 35°57' E 140°42'0 0.0
2014-Apr-22 16:15N 35°57' E 140°42'2 2.9
2014-Apr-22 15:33N 35°57' E 140°44'1211.8
2014-Apr-22 14:31N 35°47' E 140°53'1110.3
2014-Apr-22 13:28N 35°37' E 140°50'1211.7
2014-Apr-22 12:27N 35°27' E 140°41'1311.7
2014-Apr-22 11:18N 35°17' E 140°31'2011.5
2014-Apr-22 09:33N 35°02' E 140°14'1412.5
2014-Apr-22 08:25N 34°55' E 139°59'10 9.9
2014-Apr-22 07:23N 34°55' E 139°47'911.1
2014-Apr-22 06:33N 35°04' E 139°45'1312.7
2014-Apr-22 05:33N 35°16' E 139°45'1010.3
2014-Apr-22 04:33N 35°27' E 139°47'1212.2
2014-Apr-22 03:33N 35°31' E 140°01'2 1.7
2014-Apr-22 02:33N 35°31' E 140°03'0 0.0
2014-Apr-22 01:33N 35°31' E 140°03'0 0.0
2014-Apr-22 00:33N 35°31' E 140°03'1 0.8
2014-Apr-21 23:33N 35°31' E 140°02'3 3.3
2014-Apr-21 22:33N 35°30' E 139°58'1111.4
2014-Apr-21 21:33N 35°24' E 139°46'1110.8
2014-Apr-21 20:33N 35°13' E 139°47'1110.8
2014-Apr-21 19:33N 35°05' E 139°39'1111.3
2014-Apr-21 18:32N 34°57' E 139°29'53 1.5
2014-Apr-20 08:13N 35°15' E 140°29'40 8.4
2014-Apr-20 03:30N 35°54' E 140°41'0 0.1
2014-Apr-19 22:21N 35°54' E 140°41'5 0.3
2014-Apr-19 04:09N 35°58' E 140°44'35 9.4
2014-Apr-19 00:26N 35°23' E 140°37'1011.1
2014-Apr-18 23:34N 35°16' E 140°29'1410.5
2014-Apr-18 22:11N 35°05' E 140°18'711.4
2014-Apr-18 21:33N 35°01' E 140°10'1211.4
2014-Apr-18 20:28N 34°54' E 139°58'1311.3
2014-Apr-18 19:18N 34°51' E 139°42'  
2014-Apr-15 18:26N 34°51' E 139°46'1211.4
2014-Apr-15 17:24N 34°54' E 139°59'1211.4
2014-Apr-15 16:23N 35°01' E 140°11'2110.6
2014-Apr-15 14:22N 35°16' E 140°30'13 0.7
2014-Apr-14 19:33N 35°26' E 140°39'1313.6
2014-Apr-14 18:34N 35°15' E 140°29'2512.7
2014-Apr-14 16:33N 34°58' E 140°07'19 9.5
2014-Apr-14 14:34N 34°59' E 139°44'1313.1
2014-Apr-14 13:33N 35°12' E 139°46'2010.1
2014-Apr-14 11:33N 35°31' E 139°56'8 8.0
2014-Apr-14 10:33N 35°32' E 140°05'  

Dump ship's entire track history

sailing weather and tide predictions

Tokuyo Maru No.15 — JD2184 — position and weather